Portada
METAR-TAF:

METAR-TAF

Aeroports :

Elkhart Municipal Airport

Elkhart, Indiana, Estats Units d'Amèrica

latitud: 41-43N, longitud: 086-00W, altitud: 237 m

Observació

L'informe es va fer fa 3 hores i 29 minuts, a les 00:50 UTC
Vent calma
Temperatura 23°C
Humitat 83%
Pressió 1015 hPa
Visibilitat: 16.1 km
Cel clar

METAR: KEKM 180050Z 00000KT 10SM CLR 23/20 A2998 RMK AO2 LAST

Hora: 00:19 (04:19 UTC)


TAF: manca

Observacions i pronòstics meteorològics de més de 4000 aeroports (METAR i TAF).

Les estacions disponibles són els punts grocs i vermells al mapa.

Posi el ratolí al punt desitjat per veure el nom de l'estació.

Feu clic per veure les observacions i els pronòstics meteorològics.

Per canviar el mapa: feu clic els botons verds amb una creu de color negre per apropar; al botó verd amb un guió per allunyar la imatge; o en les fletxes verdes per a mapes adjacents.


METAR-TAF: